createdAt,value
2019-03-23T00:00:54.986Z,24.00
2019-03-23T00:05:46.779Z,29.00
2019-03-23T00:10:38.920Z,24.60
2019-03-23T00:15:30.842Z,25.70
2019-03-23T00:20:22.855Z,22.10
2019-03-23T00:25:14.847Z,25.30
2019-03-23T00:30:06.765Z,26.30
2019-03-23T00:34:58.740Z,26.10
2019-03-23T00:39:50.692Z,28.60
2019-03-23T00:44:40.487Z,27.30
2019-03-23T00:49:32.604Z,26.90
2019-03-23T00:54:24.778Z,34.50
2019-03-23T00:59:16.553Z,27.70
2019-03-23T01:04:08.771Z,34.20
2019-03-23T01:08:58.206Z,44.00
2019-03-23T01:13:50.136Z,47.10
2019-03-23T01:18:39.851Z,50.50
2019-03-23T01:23:32.204Z,45.40
2019-03-23T01:28:23.336Z,52.10
2019-03-23T01:33:13.627Z,52.10
2019-03-23T01:38:03.064Z,65.20
2019-03-23T01:42:54.737Z,55.00
2019-03-23T01:47:44.487Z,51.60
2019-03-23T01:52:34.763Z,65.80
2019-03-23T01:57:26.598Z,71.20
2019-03-23T02:02:18.529Z,58.50
2019-03-23T02:07:16.609Z,79.40
2019-03-23T02:12:06.060Z,70.10
2019-03-23T02:16:56.903Z,77.00
2019-03-23T02:21:48.361Z,76.20
2019-03-23T02:26:39.331Z,87.60
2019-03-23T02:31:30.172Z,89.80
2019-03-23T02:36:22.660Z,95.90
2019-03-23T02:41:13.868Z,86.30
2019-03-23T02:46:05.958Z,96.60
2019-03-23T02:50:57.651Z,94.40
2019-03-23T02:55:49.422Z,90.60
2019-03-23T03:00:41.421Z,74.10
2019-03-23T03:05:33.526Z,94.10
2019-03-23T03:10:25.617Z,85.80
2019-03-23T03:15:17.742Z,108.50
2019-03-23T03:20:10.439Z,101.30
2019-03-23T03:25:02.429Z,95.70
2019-03-23T03:29:54.457Z,89.50
2019-03-23T03:34:46.480Z,95.80
2019-03-23T03:39:38.335Z,93.40
2019-03-23T03:44:30.395Z,81.70
2019-03-23T03:49:22.379Z,93.40
2019-03-23T03:54:14.328Z,94.10
2019-03-23T03:59:06.412Z,83.10
2019-03-23T04:04:00.458Z,105.00
2019-03-23T04:08:52.210Z,89.80
2019-03-23T04:13:44.142Z,85.10
2019-03-23T04:18:35.948Z,102.40
2019-03-23T04:23:30.141Z,90.40
2019-03-23T04:28:21.597Z,84.90
2019-03-23T04:33:13.128Z,83.60
2019-03-23T04:38:05.223Z,95.40
2019-03-23T04:42:57.282Z,73.80
2019-03-23T04:47:49.481Z,105.50
2019-03-23T04:52:41.182Z,85.70
2019-03-23T04:57:33.125Z,91.20
2019-03-23T05:02:25.148Z,83.00
2019-03-23T05:07:24.658Z,102.60
2019-03-23T05:12:15.317Z,96.00
2019-03-23T05:17:07.146Z,93.20
2019-03-23T05:21:58.905Z,78.90
2019-03-23T05:26:48.305Z,83.70
2019-03-23T05:31:38.002Z,83.40
2019-03-23T05:36:29.815Z,66.80
2019-03-23T05:41:21.189Z,97.50
2019-03-23T05:46:08.435Z,77.30
2019-03-23T05:50:58.244Z,81.30
2019-03-23T05:55:50.435Z,82.20
2019-03-23T06:00:42.450Z,78.00
2019-03-23T06:05:33.995Z,78.50
2019-03-23T06:10:40.572Z,101.30
2019-03-23T06:15:29.622Z,92.80
2019-03-23T06:20:18.844Z,82.60
2019-03-23T06:25:10.520Z,93.60
2019-03-23T06:30:02.610Z,91.30
2019-03-23T06:34:54.777Z,95.60
2019-03-23T06:39:45.701Z,86.90
2019-03-23T06:44:35.804Z,88.20
2019-03-23T06:49:25.448Z,86.60
2019-03-23T06:54:18.629Z,86.90
2019-03-23T06:59:08.582Z,86.60
2019-03-23T07:03:58.683Z,94.60
2019-03-23T07:08:52.712Z,93.40
2019-03-23T07:13:44.277Z,78.70
2019-03-23T07:18:35.049Z,79.70
2019-03-23T07:23:27.141Z,77.60
2019-03-23T07:28:19.795Z,88.70
2019-03-23T07:33:11.833Z,70.50
2019-03-23T07:38:03.317Z,77.80
2019-03-23T07:42:55.112Z,64.80
2019-03-23T07:47:47.231Z,74.00
2019-03-23T07:52:39.357Z,74.70
2019-03-23T07:57:31.375Z,54.50
2019-03-23T08:02:23.353Z,65.30
2019-03-23T08:07:15.203Z,67.20
2019-03-23T08:12:07.475Z,76.60
2019-03-23T08:16:59.325Z,51.60
2019-03-23T08:21:51.277Z,60.60
2019-03-23T08:26:43.162Z,61.60
2019-03-23T08:31:35.358Z,62.40
2019-03-23T08:36:27.301Z,56.00
2019-03-23T08:41:19.333Z,50.00
2019-03-23T08:46:11.540Z,44.30
2019-03-23T08:51:03.352Z,51.80
2019-03-23T08:55:55.347Z,45.60
2019-03-23T09:00:47.217Z,51.00
2019-03-23T09:05:39.185Z,53.30
2019-03-23T09:10:31.398Z,50.70
2019-03-23T09:15:23.419Z,44.30
2019-03-23T09:20:16.190Z,44.90
2019-03-23T09:25:08.301Z,49.70
2019-03-23T09:30:00.376Z,49.70
2019-03-23T09:34:52.709Z,55.10
2019-03-23T09:39:44.774Z,46.10
2019-03-23T09:44:36.705Z,39.40
2019-03-23T09:49:29.093Z,46.10
2019-03-23T09:54:23.126Z,47.10
2019-03-23T09:59:14.713Z,40.10
2019-03-23T10:04:06.898Z,43.20
2019-03-23T10:08:59.173Z,45.20
2019-03-23T10:13:51.337Z,38.70
2019-03-23T10:18:43.549Z,48.60
2019-03-23T10:23:35.787Z,44.40
2019-03-23T10:28:27.972Z,40.80
2019-03-23T10:33:20.233Z,39.10
2019-03-23T10:38:12.436Z,46.70
2019-03-23T10:43:04.755Z,43.90
2019-03-23T10:52:49.660Z,45.00
2019-03-23T10:57:41.896Z,37.00
2019-03-23T11:02:34.407Z,39.50
2019-03-23T11:07:26.865Z,37.10
2019-03-23T11:12:18.892Z,35.70
2019-03-23T11:17:10.753Z,37.10
2019-03-23T11:22:04.927Z,44.00
2019-03-23T11:26:56.481Z,35.70
2019-03-23T11:31:48.303Z,37.10
2019-03-23T11:36:40.252Z,43.10
2019-03-23T11:41:32.367Z,34.50
2019-03-23T11:46:24.473Z,41.80
2019-03-23T11:51:16.806Z,42.10
2019-03-23T11:56:09.193Z,37.60
2019-03-23T12:01:01.395Z,48.40
2019-03-23T12:05:53.268Z,31.60
2019-03-23T12:10:45.115Z,46.90
2019-03-23T12:15:36.996Z,39.10
2019-03-23T12:20:29.390Z,38.50
2019-03-23T12:25:21.505Z,43.00
2019-03-23T12:30:13.705Z,41.60
2019-03-23T12:35:05.932Z,39.20
2019-03-23T12:39:58.696Z,41.30
2019-03-23T12:44:51.040Z,42.20
2019-03-23T12:49:43.473Z,47.80
2019-03-23T12:54:35.346Z,42.10
2019-03-23T12:59:27.584Z,42.60
2019-03-23T13:04:19.794Z,35.20
2019-03-23T13:09:12.200Z,37.60
2019-03-23T13:14:04.222Z,34.60
2019-03-23T13:18:56.557Z,42.10
2019-03-23T13:23:48.314Z,39.50
2019-03-23T13:28:40.751Z,45.00
2019-03-23T13:33:32.888Z,41.00
2019-03-23T13:38:24.975Z,41.60
2019-03-23T13:43:17.204Z,40.10
2019-03-23T13:48:09.449Z,33.60
2019-03-23T13:53:01.640Z,40.00
2019-03-23T13:57:53.740Z,36.80
2019-03-23T14:02:45.788Z,46.70
2019-03-23T14:07:38.198Z,42.00
2019-03-23T14:12:30.376Z,40.50
2019-03-23T14:17:22.499Z,36.70
2019-03-23T14:22:15.826Z,45.30
2019-03-23T14:27:08.408Z,41.40
2019-03-23T14:32:00.958Z,41.20
2019-03-23T14:36:52.956Z,36.90
2019-03-23T14:41:46.722Z,35.90
2019-03-23T14:46:39.108Z,37.20
2019-03-23T14:51:31.143Z,33.20
2019-03-23T14:56:23.622Z,38.80
2019-03-23T15:01:16.741Z,42.50
2019-03-23T15:06:08.533Z,46.80
2019-03-23T15:11:00.727Z,35.50
2019-03-23T15:15:52.780Z,41.00
2019-03-23T15:20:44.953Z,39.20
2019-03-23T15:25:37.174Z,34.80
2019-03-23T15:30:30.766Z,36.60
2019-03-23T15:35:24.752Z,43.90
2019-03-23T15:40:16.605Z,42.30
2019-03-23T15:45:10.809Z,41.90
2019-03-23T15:50:04.467Z,48.60
2019-03-23T15:54:56.148Z,44.50
2019-03-23T15:59:48.175Z,41.80
2019-03-23T16:04:40.393Z,41.90
2019-03-23T16:09:32.790Z,46.10
2019-03-23T16:14:24.963Z,43.10
2019-03-23T16:19:17.234Z,46.60
2019-03-23T16:24:09.484Z,43.90
2019-03-23T16:29:01.489Z,48.40
2019-03-23T16:33:53.582Z,44.90
2019-03-23T16:38:45.806Z,43.20
2019-03-23T16:43:38.235Z,39.80
2019-03-23T16:48:30.865Z,41.50
2019-03-23T16:53:25.198Z,46.90
2019-03-23T16:58:17.138Z,40.80
2019-03-23T17:03:09.263Z,46.80
2019-03-23T17:08:01.389Z,46.30
2019-03-23T17:12:55.400Z,45.50
2019-03-23T17:17:47.216Z,42.30
2019-03-23T17:22:39.075Z,40.50
2019-03-23T17:27:31.188Z,40.70
2019-03-23T17:32:23.451Z,44.10
2019-03-23T17:37:15.725Z,41.20
2019-03-23T17:42:08.333Z,35.60
2019-03-23T17:47:00.453Z,43.50
2019-03-23T17:51:52.452Z,47.90
2019-03-23T17:56:46.705Z,49.50
2019-03-23T18:01:38.628Z,47.40
2019-03-23T18:06:30.425Z,49.50
2019-03-23T18:11:22.674Z,41.40
2019-03-23T18:16:14.986Z,44.50
2019-03-23T18:21:07.128Z,45.10
2019-03-23T18:25:59.244Z,30.10
2019-03-23T18:30:53.301Z,33.20
2019-03-23T18:35:44.633Z,25.50
2019-03-23T18:40:36.797Z,29.40
2019-03-23T18:45:28.847Z,26.70
2019-03-23T18:50:21.063Z,30.20
2019-03-23T18:55:13.127Z,26.20
2019-03-23T19:00:05.252Z,25.90
2019-03-23T19:04:57.602Z,20.30
2019-03-23T19:09:49.632Z,18.70
2019-03-23T19:14:41.646Z,23.00
2019-03-23T19:19:33.585Z,19.20
2019-03-23T19:24:26.637Z,24.10
2019-03-23T19:29:18.587Z,18.50
2019-03-23T19:34:10.766Z,20.20
2019-03-23T19:39:02.589Z,19.20
2019-03-23T19:43:54.635Z,21.60
2019-03-23T19:48:46.899Z,25.60
2019-03-23T19:53:38.929Z,21.90
2019-03-23T19:58:31.009Z,21.20
2019-03-23T20:03:23.133Z,23.00
2019-03-23T20:08:15.179Z,19.70
2019-03-23T20:13:07.257Z,19.70
2019-03-23T20:17:59.447Z,24.50
2019-03-23T20:22:52.658Z,18.50
2019-03-23T20:27:44.699Z,16.30
2019-03-23T20:32:36.688Z,22.80
2019-03-23T20:37:28.698Z,16.00
2019-03-23T20:42:20.838Z,13.50
2019-03-23T20:47:12.862Z,18.70
2019-03-23T20:52:04.710Z,16.80
2019-03-23T20:56:56.736Z,18.80
2019-03-23T21:01:48.933Z,20.50
2019-03-23T21:06:41.057Z,19.00
2019-03-23T21:11:35.124Z,15.60
2019-03-23T21:16:26.668Z,20.00
2019-03-23T21:21:18.778Z,13.20
2019-03-23T21:26:10.956Z,15.80
2019-03-23T21:31:02.816Z,14.10
2019-03-23T21:35:54.759Z,12.10
2019-03-23T21:40:46.864Z,14.90
2019-03-23T21:45:39.134Z,13.50
2019-03-23T21:50:31.137Z,8.90
2019-03-23T21:55:23.198Z,11.40
2019-03-23T22:00:15.287Z,9.30
2019-03-23T22:05:07.619Z,9.20
2019-03-23T22:10:01.674Z,14.00
2019-03-23T22:14:53.572Z,6.50
2019-03-23T22:19:45.632Z,10.40
2019-03-23T22:24:37.829Z,8.10
2019-03-23T22:29:31.851Z,7.60
2019-03-23T22:34:25.599Z,10.40
2019-03-23T22:39:17.409Z,8.60
2019-03-23T22:44:09.643Z,8.20
2019-03-23T22:49:01.737Z,8.80
2019-03-23T22:53:55.420Z,13.90
2019-03-23T22:58:49.454Z,8.80
2019-03-23T23:03:41.857Z,8.90
2019-03-23T23:08:36.381Z,6.70
2019-03-23T23:13:28.131Z,6.40
2019-03-23T23:18:20.541Z,9.00
2019-03-23T23:23:12.326Z,10.40
2019-03-23T23:28:04.272Z,8.40
2019-03-23T23:32:56.419Z,9.10
2019-03-23T23:37:48.503Z,7.40
2019-03-23T23:42:40.504Z,6.50
2019-03-23T23:47:32.673Z,4.00
2019-03-23T23:52:24.877Z,7.40
2019-03-23T23:57:16.998Z,7.10
